sensor_id;sensor_type;location;lat;lon;timestamp;P1;durP1;ratioP1;P2;durP2;ratioP2
41799;SDS011;27468;47.460;19.034;2022-07-29T00:02:12;5.15;;;4.20;;
41799;SDS011;27468;47.460;19.034;2022-07-29T00:04:37;4.65;;;4.10;;
41799;SDS011;27468;47.460;19.034;2022-07-29T00:07:03;4.32;;;3.92;;
41799;SDS011;27468;47.460;19.034;2022-07-29T00:09:29;4.55;;;4.15;;
41799;SDS011;27468;47.460;19.034;2022-07-29T00:11:56;4.88;;;4.20;;
41799;SDS011;27468;47.460;19.034;2022-07-29T00:14:24;5.10;;;4.40;;
41799;SDS011;27468;47.460;19.034;2022-07-29T00:16:49;5.28;;;4.63;;
41799;SDS011;27468;47.460;19.034;2022-07-29T00:19:15;5.75;;;4.60;;
41799;SDS011;27468;47.460;19.034;2022-07-29T00:21:40;5.95;;;4.50;;
41799;SDS011;27468;47.460;19.034;2022-07-29T00:24:06;6.78;;;4.55;;
41799;SDS011;27468;47.460;19.034;2022-07-29T00:26:31;6.55;;;4.22;;
41799;SDS011;27468;47.460;19.034;2022-07-29T00:29:00;5.75;;;4.55;;
41799;SDS011;27468;47.460;19.034;2022-07-29T00:31:27;5.20;;;4.70;;
41799;SDS011;27468;47.460;19.034;2022-07-29T00:33:53;5.53;;;4.38;;
41799;SDS011;27468;47.460;19.034;2022-07-29T00:36:19;5.95;;;4.50;;
41799;SDS011;27468;47.460;19.034;2022-07-29T00:38:46;6.57;;;4.70;;
41799;SDS011;27468;47.460;19.034;2022-07-29T00:41:16;5.43;;;4.43;;
41799;SDS011;27468;47.460;19.034;2022-07-29T00:43:42;6.15;;;4.20;;
41799;SDS011;27468;47.460;19.034;2022-07-29T00:46:08;6.03;;;4.43;;
41799;SDS011;27468;47.460;19.034;2022-07-29T00:48:33;4.72;;;4.20;;
41799;SDS011;27468;47.460;19.034;2022-07-29T00:50:59;5.07;;;4.57;;
41799;SDS011;27468;47.460;19.034;2022-07-29T00:53:26;5.90;;;4.55;;
41799;SDS011;27468;47.460;19.034;2022-07-29T00:55:53;4.75;;;4.25;;
41799;SDS011;27468;47.460;19.034;2022-07-29T00:58:19;5.05;;;4.50;;
41799;SDS011;27468;47.460;19.034;2022-07-29T01:00:45;4.72;;;4.25;;
41799;SDS011;27468;47.460;19.034;2022-07-29T01:03:10;5.00;;;4.22;;
41799;SDS011;27468;47.460;19.034;2022-07-29T01:05:35;6.97;;;4.32;;
41799;SDS011;27468;47.460;19.034;2022-07-29T01:08:01;4.55;;;4.10;;
41799;SDS011;27468;47.460;19.034;2022-07-29T01:10:27;4.93;;;4.30;;
41799;SDS011;27468;47.460;19.034;2022-07-29T01:12:55;4.72;;;4.20;;
41799;SDS011;27468;47.460;19.034;2022-07-29T01:15:23;6.10;;;4.70;;
41799;SDS011;27468;47.460;19.034;2022-07-29T01:17:54;4.88;;;4.43;;
41799;SDS011;27468;47.460;19.034;2022-07-29T01:20:26;5.93;;;4.70;;
41799;SDS011;27468;47.460;19.034;2022-07-29T01:34:09;5.97;;;4.80;;
41799;SDS011;27468;47.460;19.034;2022-07-29T01:36:51;5.20;;;4.70;;
41799;SDS011;27468;47.460;19.034;2022-07-29T01:39:27;5.40;;;4.90;;
41799;SDS011;27468;47.460;19.034;2022-07-29T01:45:06;5.95;;;4.57;;
41799;SDS011;27468;47.460;19.034;2022-07-29T01:47:43;4.95;;;4.45;;
41799;SDS011;27468;47.460;19.034;2022-07-29T01:50:16;5.97;;;4.60;;
41799;SDS011;27468;47.460;19.034;2022-07-29T01:55:19;6.05;;;5.28;;
41799;SDS011;27468;47.460;19.034;2022-07-29T01:57:49;5.90;;;5.40;;
41799;SDS011;27468;47.460;19.034;2022-07-29T02:00:16;8.13;;;5.53;;
41799;SDS011;27468;47.460;19.034;2022-07-29T02:02:43;5.55;;;5.05;;
41799;SDS011;27468;47.460;19.034;2022-07-29T02:05:11;6.95;;;5.50;;
41799;SDS011;27468;47.460;19.034;2022-07-29T02:07:40;5.32;;;4.85;;
41799;SDS011;27468;47.460;19.034;2022-07-29T02:10:08;5.55;;;4.97;;
41799;SDS011;27468;47.460;19.034;2022-07-29T02:12:35;6.35;;;5.18;;
41799;SDS011;27468;47.460;19.034;2022-07-29T02:15:03;5.95;;;5.40;;
41799;SDS011;27468;47.460;19.034;2022-07-29T02:17:35;7.20;;;5.60;;
41799;SDS011;27468;47.460;19.034;2022-07-29T02:20:06;6.78;;;4.97;;
41799;SDS011;27468;47.460;19.034;2022-07-29T02:22:33;5.63;;;5.13;;
41799;SDS011;27468;47.460;19.034;2022-07-29T02:25:02;5.78;;;4.80;;
41799;SDS011;27468;47.460;19.034;2022-07-29T02:27:28;5.60;;;5.10;;
41799;SDS011;27468;47.460;19.034;2022-07-29T02:29:55;5.88;;;4.97;;
41799;SDS011;27468;47.460;19.034;2022-07-29T02:32:23;5.68;;;4.95;;
41799;SDS011;27468;47.460;19.034;2022-07-29T02:34:51;5.70;;;5.13;;
41799;SDS011;27468;47.460;19.034;2022-07-29T02:37:17;5.72;;;5.22;;
41799;SDS011;27468;47.460;19.034;2022-07-29T02:39:43;6.10;;;5.00;;
41799;SDS011;27468;47.460;19.034;2022-07-29T02:42:11;5.38;;;4.88;;
41799;SDS011;27468;47.460;19.034;2022-07-29T02:44:39;5.82;;;5.30;;
41799;SDS011;27468;47.460;19.034;2022-07-29T02:52:54;5.40;;;4.90;;
41799;SDS011;27468;47.460;19.034;2022-07-29T02:58:02;5.13;;;4.70;;
41799;SDS011;27468;47.460;19.034;2022-07-29T03:00:31;6.43;;;5.32;;
41799;SDS011;27468;47.460;19.034;2022-07-29T03:03:01;6.47;;;4.78;;
41799;SDS011;27468;47.460;19.034;2022-07-29T03:05:29;5.70;;;4.90;;
41799;SDS011;27468;47.460;19.034;2022-07-29T03:08:09;5.03;;;4.55;;
41799;SDS011;27468;47.460;19.034;2022-07-29T03:10:39;6.97;;;4.88;;
41799;SDS011;27468;47.460;19.034;2022-07-29T03:13:09;5.75;;;4.80;;
41799;SDS011;27468;47.460;19.034;2022-07-29T03:15:35;5.38;;;4.93;;
41799;SDS011;27468;47.460;19.034;2022-07-29T03:18:02;7.45;;;4.97;;
41799;SDS011;27468;47.460;19.034;2022-07-29T03:20:27;6.10;;;4.93;;
41799;SDS011;27468;47.460;19.034;2022-07-29T03:22:53;5.43;;;4.88;;
41799;SDS011;27468;47.460;19.034;2022-07-29T03:25:19;5.72;;;4.80;;
41799;SDS011;27468;47.460;19.034;2022-07-29T03:27:45;5.95;;;5.30;;
41799;SDS011;27468;47.460;19.034;2022-07-29T03:30:12;6.03;;;5.00;;
41799;SDS011;27468;47.460;19.034;2022-07-29T03:32:39;5.90;;;5.30;;
41799;SDS011;27468;47.460;19.034;2022-07-29T03:35:05;5.55;;;4.75;;
41799;SDS011;27468;47.460;19.034;2022-07-29T03:37:31;6.43;;;4.68;;
41799;SDS011;27468;47.460;19.034;2022-07-29T03:39:58;5.85;;;5.10;;
41799;SDS011;27468;47.460;19.034;2022-07-29T03:42:25;5.45;;;4.72;;
41799;SDS011;27468;47.460;19.034;2022-07-29T03:44:55;5.40;;;4.60;;
41799;SDS011;27468;47.460;19.034;2022-07-29T03:47:24;5.88;;;4.68;;
41799;SDS011;27468;47.460;19.034;2022-07-29T03:49:53;5.63;;;4.93;;
41799;SDS011;27468;47.460;19.034;2022-07-29T03:52:21;6.97;;;5.00;;
41799;SDS011;27468;47.460;19.034;2022-07-29T03:54:46;5.82;;;4.97;;
41799;SDS011;27468;47.460;19.034;2022-07-29T03:57:12;6.57;;;5.20;;
41799;SDS011;27468;47.460;19.034;2022-07-29T03:59:40;6.15;;;5.07;;
41799;SDS011;27468;47.460;19.034;2022-07-29T04:02:08;5.80;;;4.93;;
41799;SDS011;27468;47.460;19.034;2022-07-29T04:04:36;5.35;;;4.85;;
41799;SDS011;27468;47.460;19.034;2022-07-29T04:07:02;5.22;;;4.72;;
41799;SDS011;27468;47.460;19.034;2022-07-29T04:09:28;7.43;;;5.03;;
41799;SDS011;27468;47.460;19.034;2022-07-29T04:11:53;5.72;;;4.75;;
41799;SDS011;27468;47.460;19.034;2022-07-29T04:14:19;6.32;;;4.65;;
41799;SDS011;27468;47.460;19.034;2022-07-29T04:16:45;6.78;;;5.30;;
41799;SDS011;27468;47.460;19.034;2022-07-29T04:19:11;5.93;;;4.55;;
41799;SDS011;27468;47.460;19.034;2022-07-29T04:21:37;6.47;;;4.78;;
41799;SDS011;27468;47.460;19.034;2022-07-29T04:24:06;7.18;;;5.28;;
41799;SDS011;27468;47.460;19.034;2022-07-29T04:26:33;5.85;;;5.05;;
41799;SDS011;27468;47.460;19.034;2022-07-29T04:28:59;6.60;;;4.47;;
41799;SDS011;27468;47.460;19.034;2022-07-29T04:31:25;6.35;;;5.20;;
41799;SDS011;27468;47.460;19.034;2022-07-29T04:33:51;5.57;;;4.93;;
41799;SDS011;27468;47.460;19.034;2022-07-29T04:36:16;6.40;;;5.00;;
41799;SDS011;27468;47.460;19.034;2022-07-29T04:38:41;5.43;;;4.43;;
41799;SDS011;27468;47.460;19.034;2022-07-29T04:41:07;6.28;;;4.80;;
41799;SDS011;27468;47.460;19.034;2022-07-29T04:43:33;5.68;;;5.10;;
41799;SDS011;27468;47.460;19.034;2022-07-29T04:45:59;6.00;;;4.65;;
41799;SDS011;27468;47.460;19.034;2022-07-29T04:48:25;5.43;;;4.90;;
41799;SDS011;27468;47.460;19.034;2022-07-29T04:50:51;5.80;;;4.78;;
41799;SDS011;27468;47.460;19.034;2022-07-29T04:53:17;6.85;;;4.97;;
41799;SDS011;27468;47.460;19.034;2022-07-29T04:55:43;5.80;;;4.43;;
41799;SDS011;27468;47.460;19.034;2022-07-29T04:58:09;5.38;;;4.88;;
41799;SDS011;27468;47.460;19.034;2022-07-29T05:00:35;5.82;;;4.65;;
41799;SDS011;27468;47.460;19.034;2022-07-29T05:03:01;4.97;;;4.47;;
41799;SDS011;27468;47.460;19.034;2022-07-29T05:05:26;4.75;;;4.35;;
41799;SDS011;27468;47.460;19.034;2022-07-29T05:07:52;6.88;;;4.70;;
41799;SDS011;27468;47.460;19.034;2022-07-29T05:10:17;4.70;;;4.30;;
41799;SDS011;27468;47.460;19.034;2022-07-29T05:12:43;6.25;;;4.75;;
41799;SDS011;27468;47.460;19.034;2022-07-29T05:15:08;4.88;;;4.47;;
41799;SDS011;27468;47.460;19.034;2022-07-29T05:17:34;5.07;;;4.57;;
41799;SDS011;27468;47.460;19.034;2022-07-29T05:20:00;5.20;;;4.70;;
41799;SDS011;27468;47.460;19.034;2022-07-29T05:22:25;5.40;;;4.90;;
41799;SDS011;27468;47.460;19.034;2022-07-29T05:24:51;5.32;;;4.82;;
41799;SDS011;27468;47.460;19.034;2022-07-29T05:27:16;6.50;;;5.18;;
41799;SDS011;27468;47.460;19.034;2022-07-29T05:29:41;5.90;;;4.80;;
41799;SDS011;27468;47.460;19.034;2022-07-29T05:32:07;6.25;;;5.25;;
41799;SDS011;27468;47.460;19.034;2022-07-29T05:34:32;6.25;;;5.43;;
41799;SDS011;27468;47.460;19.034;2022-07-29T05:36:58;5.88;;;5.30;;
41799;SDS011;27468;47.460;19.034;2022-07-29T05:39:24;6.03;;;5.25;;
41799;SDS011;27468;47.460;19.034;2022-07-29T05:41:50;8.68;;;5.22;;
41799;SDS011;27468;47.460;19.034;2022-07-29T05:44:15;6.68;;;5.50;;
41799;SDS011;27468;47.460;19.034;2022-07-29T05:46:41;5.97;;;5.25;;
41799;SDS011;27468;47.460;19.034;2022-07-29T05:49:07;5.68;;;5.15;;
41799;SDS011;27468;47.460;19.034;2022-07-29T05:51:33;6.25;;;5.05;;
41799;SDS011;27468;47.460;19.034;2022-07-29T05:53:58;7.30;;;5.82;;
41799;SDS011;27468;47.460;19.034;2022-07-29T05:56:24;6.20;;;5.60;;
41799;SDS011;27468;47.460;19.034;2022-07-29T05:58:50;7.03;;;5.80;;
41799;SDS011;27468;47.460;19.034;2022-07-29T06:01:16;6.05;;;5.43;;
41799;SDS011;27468;47.460;19.034;2022-07-29T06:03:41;6.30;;;5.70;;
41799;SDS011;27468;47.460;19.034;2022-07-29T06:06:07;5.95;;;5.38;;
41799;SDS011;27468;47.460;19.034;2022-07-29T06:08:36;6.57;;;5.30;;
41799;SDS011;27468;47.460;19.034;2022-07-29T06:11:02;6.80;;;5.30;;
41799;SDS011;27468;47.460;19.034;2022-07-29T06:13:28;6.57;;;5.22;;
41799;SDS011;27468;47.460;19.034;2022-07-29T06:15:54;7.93;;;5.65;;
41799;SDS011;27468;47.460;19.034;2022-07-29T06:18:19;8.90;;;5.70;;
41799;SDS011;27468;47.460;19.034;2022-07-29T06:20:48;6.18;;;5.47;;
41799;SDS011;27468;47.460;19.034;2022-07-29T06:23:17;7.43;;;5.55;;
41799;SDS011;27468;47.460;19.034;2022-07-29T06:25:43;7.00;;;5.47;;
41799;SDS011;27468;47.460;19.034;2022-07-29T06:28:08;6.13;;;5.53;;
41799;SDS011;27468;47.460;19.034;2022-07-29T06:30:34;7.13;;;5.50;;
41799;SDS011;27468;47.460;19.034;2022-07-29T06:33:00;7.57;;;5.47;;
41799;SDS011;27468;47.460;19.034;2022-07-29T06:35:26;6.65;;;5.35;;
41799;SDS011;27468;47.460;19.034;2022-07-29T06:37:52;6.75;;;5.85;;
41799;SDS011;27468;47.460;19.034;2022-07-29T06:40:17;6.70;;;5.40;;
41799;SDS011;27468;47.460;19.034;2022-07-29T06:43:01;7.90;;;5.35;;
41799;SDS011;27468;47.460;19.034;2022-07-29T06:45:27;7.30;;;5.70;;
41799;SDS011;27468;47.460;19.034;2022-07-29T06:47:52;7.78;;;5.30;;
41799;SDS011;27468;47.460;19.034;2022-07-29T06:50:18;7.28;;;5.35;;
41799;SDS011;27468;47.460;19.034;2022-07-29T06:52:43;6.10;;;5.35;;
41799;SDS011;27468;47.460;19.034;2022-07-29T06:55:09;6.13;;;5.47;;
41799;SDS011;27468;47.460;19.034;2022-07-29T06:57:34;5.90;;;5.30;;
41799;SDS011;27468;47.460;19.034;2022-07-29T07:00:00;8.63;;;5.28;;
41799;SDS011;27468;47.460;19.034;2022-07-29T07:02:25;6.72;;;5.50;;
41799;SDS011;27468;47.460;19.034;2022-07-29T07:04:51;8.70;;;5.40;;
41799;SDS011;27468;47.460;19.034;2022-07-29T07:07:17;6.40;;;5.47;;
41799;SDS011;27468;47.460;19.034;2022-07-29T07:09:43;6.07;;;5.47;;
41799;SDS011;27468;47.460;19.034;2022-07-29T07:12:09;7.72;;;5.78;;
41799;SDS011;27468;47.460;19.034;2022-07-29T07:14:34;7.45;;;5.60;;
41799;SDS011;27468;47.460;19.034;2022-07-29T07:17:00;6.68;;;5.22;;
41799;SDS011;27468;47.460;19.034;2022-07-29T07:19:26;7.13;;;5.78;;
41799;SDS011;27468;47.460;19.034;2022-07-29T07:21:55;6.22;;;5.63;;
41799;SDS011;27468;47.460;19.034;2022-07-29T07:24:20;6.28;;;5.68;;
41799;SDS011;27468;47.460;19.034;2022-07-29T07:26:46;9.02;;;6.22;;
41799;SDS011;27468;47.460;19.034;2022-07-29T07:29:11;7.07;;;5.82;;
41799;SDS011;27468;47.460;19.034;2022-07-29T07:31:37;7.05;;;5.82;;
41799;SDS011;27468;47.460;19.034;2022-07-29T07:34:03;10.40;;;6.13;;
41799;SDS011;27468;47.460;19.034;2022-07-29T07:36:28;7.93;;;6.25;;
41799;SDS011;27468;47.460;19.034;2022-07-29T07:38:54;6.57;;;5.90;;
41799;SDS011;27468;47.460;19.034;2022-07-29T07:41:19;6.50;;;5.80;;
41799;SDS011;27468;47.460;19.034;2022-07-29T07:43:46;6.55;;;5.90;;
41799;SDS011;27468;47.460;19.034;2022-07-29T07:46:11;6.97;;;6.10;;
41799;SDS011;27468;47.460;19.034;2022-07-29T07:48:37;6.97;;;6.03;;
41799;SDS011;27468;47.460;19.034;2022-07-29T07:51:02;6.43;;;5.82;;
41799;SDS011;27468;47.460;19.034;2022-07-29T07:53:28;6.47;;;5.85;;
41799;SDS011;27468;47.460;19.034;2022-07-29T07:55:54;7.43;;;6.57;;
41799;SDS011;27468;47.460;19.034;2022-07-29T07:58:20;7.28;;;6.05;;
41799;SDS011;27468;47.460;19.034;2022-07-29T08:00:45;6.45;;;5.75;;
41799;SDS011;27468;47.460;19.034;2022-07-29T08:03:12;7.40;;;6.70;;
41799;SDS011;27468;47.460;19.034;2022-07-29T08:05:38;8.20;;;5.97;;
41799;SDS011;27468;47.460;19.034;2022-07-29T08:08:06;8.48;;;5.90;;
41799;SDS011;27468;47.460;19.034;2022-07-29T08:10:32;6.75;;;6.10;;
41799;SDS011;27468;47.460;19.034;2022-07-29T08:13:16;8.07;;;6.28;;
41799;SDS011;27468;47.460;19.034;2022-07-29T08:15:42;6.88;;;6.15;;
41799;SDS011;27468;47.460;19.034;2022-07-29T08:18:09;10.27;;;6.53;;
41799;SDS011;27468;47.460;19.034;2022-07-29T08:20:35;6.97;;;6.28;;
41799;SDS011;27468;47.460;19.034;2022-07-29T08:23:03;8.27;;;5.90;;
41799;SDS011;27468;47.460;19.034;2022-07-29T08:25:29;7.07;;;6.10;;
41799;SDS011;27468;47.460;19.034;2022-07-29T08:27:54;7.28;;;6.53;;
41799;SDS011;27468;47.460;19.034;2022-07-29T08:30:20;8.25;;;6.18;;
41799;SDS011;27468;47.460;19.034;2022-07-29T08:32:47;7.90;;;6.68;;
41799;SDS011;27468;47.460;19.034;2022-07-29T08:35:13;9.52;;;6.47;;
41799;SDS011;27468;47.460;19.034;2022-07-29T08:37:38;6.63;;;6.00;;
41799;SDS011;27468;47.460;19.034;2022-07-29T08:40:04;7.15;;;5.95;;
41799;SDS011;27468;47.460;19.034;2022-07-29T08:42:31;6.93;;;6.22;;
41799;SDS011;27468;47.460;19.034;2022-07-29T08:44:56;6.93;;;6.05;;
41799;SDS011;27468;47.460;19.034;2022-07-29T08:47:23;7.50;;;6.07;;
41799;SDS011;27468;47.460;19.034;2022-07-29T08:49:51;7.93;;;6.45;;
41799;SDS011;27468;47.460;19.034;2022-07-29T08:52:17;8.07;;;6.50;;
41799;SDS011;27468;47.460;19.034;2022-07-29T08:54:43;7.25;;;6.20;;
41799;SDS011;27468;47.460;19.034;2022-07-29T08:57:10;7.65;;;6.28;;
41799;SDS011;27468;47.460;19.034;2022-07-29T08:59:38;10.13;;;6.35;;
41799;SDS011;27468;47.460;19.034;2022-07-29T09:02:05;7.00;;;6.28;;
41799;SDS011;27468;47.460;19.034;2022-07-29T09:04:42;7.15;;;6.05;;
41799;SDS011;27468;47.460;19.034;2022-07-29T09:07:08;6.90;;;6.05;;
41799;SDS011;27468;47.460;19.034;2022-07-29T09:09:34;7.10;;;5.95;;
41799;SDS011;27468;47.460;19.034;2022-07-29T09:12:00;7.18;;;5.50;;
41799;SDS011;27468;47.460;19.034;2022-07-29T09:14:26;6.00;;;5.40;;
41799;SDS011;27468;47.460;19.034;2022-07-29T09:16:55;6.30;;;5.50;;
41799;SDS011;27468;47.460;19.034;2022-07-29T09:19:21;5.88;;;5.38;;
41799;SDS011;27468;47.460;19.034;2022-07-29T09:21:56;6.43;;;5.50;;
41799;SDS011;27468;47.460;19.034;2022-07-29T09:24:23;5.95;;;5.32;;
41799;SDS011;27468;47.460;19.034;2022-07-29T09:26:51;5.97;;;5.18;;
41799;SDS011;27468;47.460;19.034;2022-07-29T09:29:17;6.10;;;5.50;;
41799;SDS011;27468;47.460;19.034;2022-07-29T09:31:48;6.05;;;5.32;;
41799;SDS011;27468;47.460;19.034;2022-07-29T09:34:16;7.72;;;5.30;;
41799;SDS011;27468;47.460;19.034;2022-07-29T09:36:47;5.63;;;5.20;;
41799;SDS011;27468;47.460;19.034;2022-07-29T09:39:15;5.80;;;5.03;;
41799;SDS011;27468;47.460;19.034;2022-07-29T09:41:52;6.53;;;5.20;;
41799;SDS011;27468;47.460;19.034;2022-07-29T09:44:20;6.25;;;5.10;;
41799;SDS011;27468;47.460;19.034;2022-07-29T09:49:19;5.90;;;5.13;;
41799;SDS011;27468;47.460;19.034;2022-07-29T09:51:44;5.18;;;4.68;;
41799;SDS011;27468;47.460;19.034;2022-07-29T09:54:23;5.70;;;4.68;;
41799;SDS011;27468;47.460;19.034;2022-07-29T09:56:51;5.43;;;4.70;;
41799;SDS011;27468;47.460;19.034;2022-07-29T09:59:17;7.60;;;4.90;;
41799;SDS011;27468;47.460;19.034;2022-07-29T10:01:46;6.68;;;4.80;;
41799;SDS011;27468;47.460;19.034;2022-07-29T10:04:14;7.13;;;4.78;;
41799;SDS011;27468;47.460;19.034;2022-07-29T10:07:01;4.97;;;4.32;;
41799;SDS011;27468;47.460;19.034;2022-07-29T10:09:28;6.38;;;4.53;;
41799;SDS011;27468;47.460;19.034;2022-07-29T10:12:08;5.18;;;4.55;;
41799;SDS011;27468;47.460;19.034;2022-07-29T10:14:36;5.77;;;4.40;;
41799;SDS011;27468;47.460;19.034;2022-07-29T10:17:03;6.60;;;5.88;;
41799;SDS011;27468;47.460;19.034;2022-07-29T10:19:30;5.95;;;4.70;;
41799;SDS011;27468;47.460;19.034;2022-07-29T10:21:58;4.90;;;4.40;;
41799;SDS011;27468;47.460;19.034;2022-07-29T10:24:25;7.35;;;4.63;;
41799;SDS011;27468;47.460;19.034;2022-07-29T10:26:52;4.82;;;4.20;;
41799;SDS011;27468;47.460;19.034;2022-07-29T10:29:20;5.10;;;4.70;;
41799;SDS011;27468;47.460;19.034;2022-07-29T10:37:17;4.72;;;4.18;;
41799;SDS011;27468;47.460;19.034;2022-07-29T10:43:21;6.35;;;4.35;;
41799;SDS011;27468;47.460;19.034;2022-07-29T10:45:54;5.93;;;4.30;;
41799;SDS011;27468;47.460;19.034;2022-07-29T10:48:21;4.90;;;4.28;;
41799;SDS011;27468;47.460;19.034;2022-07-29T10:50:57;5.22;;;4.72;;
41799;SDS011;27468;47.460;19.034;2022-07-29T10:53:45;6.38;;;4.35;;
41799;SDS011;27468;47.460;19.034;2022-07-29T10:56:45;5.40;;;4.90;;
41799;SDS011;27468;47.460;19.034;2022-07-29T11:01:54;6.55;;;4.10;;
41799;SDS011;27468;47.460;19.034;2022-07-29T11:07:10;6.05;;;4.03;;
41799;SDS011;27468;47.460;19.034;2022-07-29T11:09:37;4.60;;;3.83;;
41799;SDS011;27468;47.460;19.034;2022-07-29T11:12:03;4.45;;;4.13;;
41799;SDS011;27468;47.460;19.034;2022-07-29T11:17:22;4.03;;;3.72;;
41799;SDS011;27468;47.460;19.034;2022-07-29T11:19:48;4.95;;;4.25;;
41799;SDS011;27468;47.460;19.034;2022-07-29T11:22:31;4.32;;;3.70;;
41799;SDS011;27468;47.460;19.034;2022-07-29T11:25:13;4.47;;;4.07;;
41799;SDS011;27468;47.460;19.034;2022-07-29T11:27:39;5.40;;;4.13;;
41799;SDS011;27468;47.460;19.034;2022-07-29T11:30:05;4.35;;;3.95;;
41799;SDS011;27468;47.460;19.034;2022-07-29T11:32:40;4.20;;;3.90;;
41799;SDS011;27468;47.460;19.034;2022-07-29T11:37:42;4.72;;;3.80;;
41799;SDS011;27468;47.460;19.034;2022-07-29T11:40:09;5.38;;;3.90;;
41799;SDS011;27468;47.460;19.034;2022-07-29T11:42:37;4.53;;;4.10;;
41799;SDS011;27468;47.460;19.034;2022-07-29T11:45:04;4.47;;;4.07;;
41799;SDS011;27468;47.460;19.034;2022-07-29T11:47:39;4.57;;;3.97;;
41799;SDS011;27468;47.460;19.034;2022-07-29T11:50:07;4.38;;;3.92;;
41799;SDS011;27468;47.460;19.034;2022-07-29T11:55:08;4.40;;;3.60;;
41799;SDS011;27468;47.460;19.034;2022-07-29T11:57:37;4.82;;;4.05;;
41799;SDS011;27468;47.460;19.034;2022-07-29T12:00:10;5.13;;;4.03;;
41799;SDS011;27468;47.460;19.034;2022-07-29T12:02:43;6.95;;;4.30;;
41799;SDS011;27468;47.460;19.034;2022-07-29T12:05:09;4.32;;;3.92;;
41799;SDS011;27468;47.460;19.034;2022-07-29T12:07:38;4.18;;;3.78;;
41799;SDS011;27468;47.460;19.034;2022-07-29T12:10:05;4.22;;;3.65;;
41799;SDS011;27468;47.460;19.034;2022-07-29T12:12:31;4.47;;;3.78;;
41799;SDS011;27468;47.460;19.034;2022-07-29T12:14:57;4.20;;;3.80;;
41799;SDS011;27468;47.460;19.034;2022-07-29T12:17:29;4.60;;;3.85;;
41799;SDS011;27468;47.460;19.034;2022-07-29T12:19:57;4.10;;;3.75;;
41799;SDS011;27468;47.460;19.034;2022-07-29T12:22:28;4.60;;;4.20;;
41799;SDS011;27468;47.460;19.034;2022-07-29T12:24:55;4.28;;;3.90;;
41799;SDS011;27468;47.460;19.034;2022-07-29T12:27:25;4.85;;;4.05;;
41799;SDS011;27468;47.460;19.034;2022-07-29T12:29:58;4.97;;;4.00;;
41799;SDS011;27468;47.460;19.034;2022-07-29T12:32:31;7.65;;;4.00;;
41799;SDS011;27468;47.460;19.034;2022-07-29T12:34:58;5.03;;;3.92;;
41799;SDS011;27468;47.460;19.034;2022-07-29T12:37:23;5.35;;;4.10;;
41799;SDS011;27468;47.460;19.034;2022-07-29T12:39:49;6.30;;;4.30;;
41799;SDS011;27468;47.460;19.034;2022-07-29T12:42:15;4.70;;;3.90;;
41799;SDS011;27468;47.460;19.034;2022-07-29T12:44:48;4.85;;;4.20;;
41799;SDS011;27468;47.460;19.034;2022-07-29T12:47:15;5.63;;;4.28;;
41799;SDS011;27468;47.460;19.034;2022-07-29T12:49:43;5.38;;;4.35;;
41799;SDS011;27468;47.460;19.034;2022-07-29T12:54:50;4.72;;;4.32;;
41799;SDS011;27468;47.460;19.034;2022-07-29T12:57:15;4.72;;;4.15;;
41799;SDS011;27468;47.460;19.034;2022-07-29T12:59:41;4.38;;;4.00;;
41799;SDS011;27468;47.460;19.034;2022-07-29T13:02:07;4.90;;;4.40;;
41799;SDS011;27468;47.460;19.034;2022-07-29T13:04:54;5.28;;;3.80;;
41799;SDS011;27468;47.460;19.034;2022-07-29T13:07:28;7.32;;;4.28;;
41799;SDS011;27468;47.460;19.034;2022-07-29T13:10:14;4.50;;;4.05;;
41799;SDS011;27468;47.460;19.034;2022-07-29T13:15:35;4.70;;;4.05;;
41799;SDS011;27468;47.460;19.034;2022-07-29T13:18:02;4.00;;;3.70;;
41799;SDS011;27468;47.460;19.034;2022-07-29T13:20:29;5.40;;;4.10;;
41799;SDS011;27468;47.460;19.034;2022-07-29T13:22:56;4.47;;;4.05;;
41799;SDS011;27468;47.460;19.034;2022-07-29T13:25:23;4.38;;;3.97;;
41799;SDS011;27468;47.460;19.034;2022-07-29T13:27:51;4.40;;;4.00;;
41799;SDS011;27468;47.460;19.034;2022-07-29T13:30:16;5.40;;;4.70;;
41799;SDS011;27468;47.460;19.034;2022-07-29T13:32:41;4.85;;;4.40;;
41799;SDS011;27468;47.460;19.034;2022-07-29T13:35:07;4.63;;;4.15;;
41799;SDS011;27468;47.460;19.034;2022-07-29T13:37:34;4.47;;;4.10;;
41799;SDS011;27468;47.460;19.034;2022-07-29T13:40:03;5.05;;;4.40;;
41799;SDS011;27468;47.460;19.034;2022-07-29T13:42:29;4.97;;;3.90;;
41799;SDS011;27468;47.460;19.034;2022-07-29T13:44:55;4.38;;;3.90;;
41799;SDS011;27468;47.460;19.034;2022-07-29T13:47:21;4.30;;;4.00;;
41799;SDS011;27468;47.460;19.034;2022-07-29T13:49:47;4.55;;;3.90;;
41799;SDS011;27468;47.460;19.034;2022-07-29T13:52:13;4.68;;;4.18;;
41799;SDS011;27468;47.460;19.034;2022-07-29T13:54:38;5.40;;;3.92;;
41799;SDS011;27468;47.460;19.034;2022-07-29T13:57:04;5.72;;;4.13;;
41799;SDS011;27468;47.460;19.034;2022-07-29T13:59:30;6.60;;;4.43;;
41799;SDS011;27468;47.460;19.034;2022-07-29T14:01:55;4.82;;;4.13;;
41799;SDS011;27468;47.460;19.034;2022-07-29T14:04:21;4.43;;;3.83;;
41799;SDS011;27468;47.460;19.034;2022-07-29T14:06:48;4.43;;;3.95;;
41799;SDS011;27468;47.460;19.034;2022-07-29T14:09:16;5.00;;;4.43;;
41799;SDS011;27468;47.460;19.034;2022-07-29T14:11:42;4.38;;;4.00;;
41799;SDS011;27468;47.460;19.034;2022-07-29T14:14:08;4.50;;;4.10;;
41799;SDS011;27468;47.460;19.034;2022-07-29T14:16:35;4.75;;;4.32;;
41799;SDS011;27468;47.460;19.034;2022-07-29T14:19:02;4.47;;;4.07;;
41799;SDS011;27468;47.460;19.034;2022-07-29T14:21:27;5.10;;;3.80;;
41799;SDS011;27468;47.460;19.034;2022-07-29T14:23:53;5.32;;;4.20;;
41799;SDS011;27468;47.460;19.034;2022-07-29T14:26:19;5.22;;;4.00;;
41799;SDS011;27468;47.460;19.034;2022-07-29T14:28:45;4.63;;;4.05;;
41799;SDS011;27468;47.460;19.034;2022-07-29T14:31:11;4.40;;;4.00;;
41799;SDS011;27468;47.460;19.034;2022-07-29T14:33:36;4.45;;;4.05;;
41799;SDS011;27468;47.460;19.034;2022-07-29T14:36:02;4.88;;;4.15;;
41799;SDS011;27468;47.460;19.034;2022-07-29T14:38:28;4.30;;;3.90;;
41799;SDS011;27468;47.460;19.034;2022-07-29T14:40:53;4.40;;;4.00;;
41799;SDS011;27468;47.460;19.034;2022-07-29T14:43:19;5.25;;;4.15;;
41799;SDS011;27468;47.460;19.034;2022-07-29T14:45:44;4.13;;;3.83;;
41799;SDS011;27468;47.460;19.034;2022-07-29T14:48:10;4.28;;;3.85;;
41799;SDS011;27468;47.460;19.034;2022-07-29T14:50:36;4.30;;;3.90;;
41799;SDS011;27468;47.460;19.034;2022-07-29T14:53:02;4.40;;;4.00;;
41799;SDS011;27468;47.460;19.034;2022-07-29T14:55:27;4.60;;;4.20;;
41799;SDS011;27468;47.460;19.034;2022-07-29T14:57:53;5.03;;;4.03;;
41799;SDS011;27468;47.460;19.034;2022-07-29T15:00:19;4.32;;;3.85;;
41799;SDS011;27468;47.460;19.034;2022-07-29T15:02:45;5.05;;;4.28;;
41799;SDS011;27468;47.460;19.034;2022-07-29T15:05:11;7.93;;;4.13;;
41799;SDS011;27468;47.460;19.034;2022-07-29T15:07:36;6.00;;;4.63;;
41799;SDS011;27468;47.460;19.034;2022-07-29T15:10:02;4.80;;;4.15;;
41799;SDS011;27468;47.460;19.034;2022-07-29T15:12:29;4.38;;;3.95;;
41799;SDS011;27468;47.460;19.034;2022-07-29T15:14:55;6.15;;;4.40;;
41799;SDS011;27468;47.460;19.034;2022-07-29T15:17:21;4.57;;;4.18;;
41799;SDS011;27468;47.460;19.034;2022-07-29T15:19:46;4.47;;;3.97;;
41799;SDS011;27468;47.460;19.034;2022-07-29T15:22:11;5.82;;;4.40;;
41799;SDS011;27468;47.460;19.034;2022-07-29T15:24:37;4.75;;;4.07;;
41799;SDS011;27468;47.460;19.034;2022-07-29T15:27:03;5.35;;;4.22;;
41799;SDS011;27468;47.460;19.034;2022-07-29T15:29:28;5.35;;;4.63;;
41799;SDS011;27468;47.460;19.034;2022-07-29T15:31:54;4.43;;;4.03;;